createdAt,value
2019-02-19T00:01:00.580Z,8.60
2019-02-19T00:03:29.668Z,11.97
2019-02-19T00:05:58.770Z,8.60
2019-02-19T00:08:27.858Z,8.23
2019-02-19T00:10:56.947Z,8.47
2019-02-19T00:13:26.047Z,7.27
2019-02-19T00:15:55.114Z,6.90
2019-02-19T00:18:24.199Z,7.20
2019-02-19T00:20:53.294Z,6.50
2019-02-19T00:23:22.390Z,8.63
2019-02-19T00:25:52.327Z,9.07
2019-02-19T00:28:21.509Z,7.50
2019-02-19T00:30:50.586Z,6.47
2019-02-19T00:33:19.659Z,8.87
2019-02-19T00:35:48.771Z,10.27
2019-02-19T00:38:17.901Z,7.03
2019-02-19T00:40:46.983Z,6.60
2019-02-19T00:43:16.100Z,7.83
2019-02-19T00:45:45.207Z,5.63
2019-02-19T00:48:14.266Z,6.70
2019-02-19T00:50:43.371Z,5.87
2019-02-19T00:53:12.473Z,9.93
2019-02-19T00:55:41.567Z,7.10
2019-02-19T00:58:10.665Z,7.07
2019-02-19T01:00:39.740Z,7.67
2019-02-19T01:03:08.862Z,6.93
2019-02-19T01:05:37.932Z,9.70
2019-02-19T01:08:07.113Z,10.30
2019-02-19T01:10:36.182Z,7.37
2019-02-19T01:13:05.243Z,10.17
2019-02-19T01:15:34.335Z,6.90
2019-02-19T01:18:03.411Z,7.50
2019-02-19T01:20:32.511Z,6.87
2019-02-19T01:23:01.586Z,6.53
2019-02-19T01:25:30.669Z,5.80
2019-02-19T01:27:59.696Z,8.20
2019-02-19T01:30:28.799Z,8.73
2019-02-19T01:32:57.911Z,7.73
2019-02-19T01:35:27.060Z,6.10
2019-02-19T01:37:56.165Z,9.00
2019-02-19T01:40:26.969Z,7.10
2019-02-19T01:42:56.044Z,7.67
2019-02-19T01:45:25.115Z,6.57
2019-02-19T01:47:54.215Z,6.23
2019-02-19T01:50:23.309Z,9.57
2019-02-19T01:52:52.383Z,8.23
2019-02-19T01:55:21.409Z,8.03
2019-02-19T01:57:50.483Z,9.80
2019-02-19T02:00:19.557Z,11.93
2019-02-19T02:02:48.648Z,10.00
2019-02-19T02:05:17.755Z,10.43
2019-02-19T02:07:46.855Z,13.33
2019-02-19T02:10:15.970Z,6.40
2019-02-19T02:12:45.050Z,8.53
2019-02-19T02:15:14.152Z,7.40
2019-02-19T02:17:43.241Z,8.03
2019-02-19T02:20:12.296Z,9.33
2019-02-19T02:22:41.373Z,12.50
2019-02-19T02:25:10.519Z,9.17
2019-02-19T02:27:39.595Z,10.80
2019-02-19T02:30:08.774Z,13.20
2019-02-19T02:32:37.851Z,9.83
2019-02-19T02:35:06.923Z,9.77
2019-02-19T02:37:35.999Z,9.10
2019-02-19T02:40:05.559Z,7.93
2019-02-19T02:42:34.667Z,10.40
2019-02-19T02:45:04.023Z,8.23
2019-02-19T02:47:33.097Z,10.37
2019-02-19T02:50:02.173Z,8.50
2019-02-19T02:52:31.287Z,8.00
2019-02-19T02:55:00.357Z,8.87
2019-02-19T02:57:29.417Z,7.83
2019-02-19T02:59:58.491Z,7.87
2019-02-19T03:02:27.570Z,11.17
2019-02-19T03:04:56.666Z,6.90
2019-02-19T03:07:30.655Z,11.20
2019-02-19T03:09:59.752Z,10.00
2019-02-19T03:12:28.843Z,9.73
2019-02-19T03:14:57.898Z,7.60
2019-02-19T03:17:26.997Z,10.47
2019-02-19T03:19:56.070Z,9.47
2019-02-19T03:22:25.133Z,7.93
2019-02-19T03:24:54.221Z,6.77
2019-02-19T03:27:23.286Z,7.00
2019-02-19T03:29:52.341Z,7.30
2019-02-19T03:32:21.435Z,7.43
2019-02-19T03:34:50.482Z,7.90
2019-02-19T03:37:19.560Z,9.03
2019-02-19T03:39:48.641Z,10.40
2019-02-19T03:42:17.737Z,8.73
2019-02-19T03:44:46.868Z,7.40
2019-02-19T03:47:15.965Z,6.77
2019-02-19T03:49:45.045Z,10.37
2019-02-19T03:52:14.149Z,7.37
2019-02-19T03:54:43.416Z,8.90
2019-02-19T03:57:12.492Z,8.47
2019-02-19T03:59:41.564Z,13.10
2019-02-19T04:02:10.643Z,8.30
2019-02-19T04:04:39.724Z,11.57
2019-02-19T04:07:08.875Z,10.93
2019-02-19T04:09:37.939Z,13.33
2019-02-19T04:12:07.033Z,8.90
2019-02-19T04:14:36.115Z,8.17
2019-02-19T04:17:05.284Z,10.13
2019-02-19T04:19:34.368Z,9.67
2019-02-19T04:22:03.465Z,11.60
2019-02-19T04:24:32.547Z,9.93
2019-02-19T04:27:01.639Z,13.53
2019-02-19T04:29:30.709Z,8.57
2019-02-19T04:31:59.739Z,8.40
2019-02-19T04:34:28.815Z,11.67
2019-02-19T04:36:57.890Z,12.60
2019-02-19T04:39:26.975Z,12.10
2019-02-19T04:41:56.045Z,12.50
2019-02-19T04:44:25.151Z,9.97
2019-02-19T04:46:54.262Z,8.90
2019-02-19T04:49:23.369Z,12.50
2019-02-19T04:51:52.422Z,12.47
2019-02-19T04:54:21.517Z,10.37
2019-02-19T04:56:50.590Z,10.37
2019-02-19T04:59:19.704Z,9.60
2019-02-19T05:01:48.865Z,12.07
2019-02-19T05:04:17.978Z,9.90
2019-02-19T05:06:47.046Z,11.03
2019-02-19T05:09:16.063Z,13.03
2019-02-19T05:11:45.161Z,11.87
2019-02-19T05:14:14.251Z,11.33
2019-02-19T05:16:43.338Z,10.63
2019-02-19T05:19:12.430Z,10.37
2019-02-19T05:21:41.494Z,13.07
2019-02-19T05:24:10.594Z,13.50
2019-02-19T05:26:39.750Z,10.67
2019-02-19T05:29:08.822Z,12.80
2019-02-19T05:31:37.902Z,13.90
2019-02-19T05:34:06.998Z,13.20
2019-02-19T05:36:36.132Z,10.50
2019-02-19T05:39:06.255Z,8.60
2019-02-19T05:41:35.275Z,11.10
2019-02-19T05:44:04.355Z,12.27
2019-02-19T05:46:33.432Z,11.03
2019-02-19T05:49:02.521Z,11.57
2019-02-19T05:51:31.589Z,10.40
2019-02-19T05:54:00.678Z,8.97
2019-02-19T05:56:29.751Z,12.43
2019-02-19T05:58:58.852Z,10.63
2019-02-19T06:01:28.010Z,13.87
2019-02-19T06:03:57.088Z,13.33
2019-02-19T06:06:26.162Z,15.37
2019-02-19T06:08:55.257Z,11.13
2019-02-19T06:11:24.354Z,13.10
2019-02-19T06:13:53.488Z,11.90
2019-02-19T06:16:22.562Z,13.37
2019-02-19T06:18:51.567Z,11.83
2019-02-19T06:21:20.602Z,13.03
2019-02-19T06:23:49.682Z,13.57
2019-02-19T06:26:18.779Z,11.47
2019-02-19T06:28:47.862Z,11.47
2019-02-19T06:31:16.934Z,9.37
2019-02-19T06:33:45.938Z,16.40
2019-02-19T06:36:15.027Z,13.30
2019-02-19T06:38:44.108Z,14.00
2019-02-19T06:41:13.190Z,10.63
2019-02-19T06:43:42.278Z,11.90
2019-02-19T06:46:11.432Z,15.37
2019-02-19T06:48:40.526Z,10.63
2019-02-19T06:51:09.598Z,11.20
2019-02-19T06:53:38.706Z,10.53
2019-02-19T06:56:07.807Z,12.57
2019-02-19T06:58:36.892Z,13.67
2019-02-19T07:01:06.047Z,16.67
2019-02-19T07:03:57.071Z,12.60
2019-02-19T07:06:26.248Z,14.00
2019-02-19T07:08:55.346Z,12.63
2019-02-19T07:11:24.434Z,13.40
2019-02-19T07:13:53.549Z,17.20
2019-02-19T07:16:22.628Z,12.97
2019-02-19T07:18:51.733Z,13.80
2019-02-19T07:21:20.829Z,16.63
2019-02-19T07:23:49.912Z,16.17
2019-02-19T07:26:19.024Z,13.23
2019-02-19T07:28:48.151Z,15.60
2019-02-19T07:31:17.314Z,12.40
2019-02-19T07:33:46.415Z,10.80
2019-02-19T07:36:15.507Z,13.23
2019-02-19T07:38:44.591Z,10.97
2019-02-19T07:41:13.678Z,12.93
2019-02-19T07:43:42.768Z,13.73
2019-02-19T07:46:11.887Z,11.37
2019-02-19T07:48:40.975Z,10.70
2019-02-19T07:51:10.049Z,13.13
2019-02-19T07:53:39.163Z,10.73
2019-02-19T07:56:08.314Z,13.53
2019-02-19T07:58:37.394Z,12.70
2019-02-19T08:01:06.471Z,12.03
2019-02-19T08:03:35.553Z,12.40
2019-02-19T08:06:04.672Z,11.97
2019-02-19T08:08:33.755Z,10.87
2019-02-19T08:11:02.862Z,13.90
2019-02-19T08:13:31.971Z,10.83
2019-02-19T08:16:01.227Z,12.67
2019-02-19T08:18:30.399Z,11.27
2019-02-19T08:20:59.535Z,13.13
2019-02-19T08:23:29.959Z,14.23
2019-02-19T08:25:59.209Z,13.83
2019-02-19T08:28:28.312Z,11.90
2019-02-19T08:30:57.405Z,13.67
2019-02-19T08:33:26.489Z,11.47
2019-02-19T08:35:55.570Z,14.17
2019-02-19T08:38:24.589Z,11.63
2019-02-19T08:40:53.709Z,10.00
2019-02-19T08:43:22.819Z,13.43
2019-02-19T08:45:51.889Z,11.40
2019-02-19T08:48:20.991Z,12.30
2019-02-19T08:50:49.991Z,10.73
2019-02-19T08:53:19.084Z,11.13
2019-02-19T08:55:48.165Z,12.10
2019-02-19T08:58:17.171Z,12.97
2019-02-19T09:00:46.226Z,12.10
2019-02-19T09:03:16.808Z,13.00
2019-02-19T09:05:46.175Z,14.83
2019-02-19T09:08:15.191Z,16.63
2019-02-19T09:10:44.305Z,15.07
2019-02-19T09:13:13.384Z,19.47
2019-02-19T09:15:42.483Z,12.37
2019-02-19T09:18:11.560Z,11.23
2019-02-19T09:20:40.723Z,12.30
2019-02-19T09:23:09.903Z,14.07
2019-02-19T09:25:38.985Z,14.87
2019-02-19T09:28:08.073Z,12.70
2019-02-19T09:30:37.164Z,14.87
2019-02-19T09:33:06.242Z,13.70
2019-02-19T09:35:35.322Z,14.57
2019-02-19T09:38:04.414Z,17.80
2019-02-19T09:40:33.642Z,15.30
2019-02-19T09:43:02.765Z,12.17
2019-02-19T09:45:31.900Z,15.43
2019-02-19T09:48:01.661Z,11.57
2019-02-19T09:50:30.949Z,14.93
2019-02-19T09:53:00.476Z,14.93
2019-02-19T09:55:29.730Z,12.10
2019-02-19T09:57:58.837Z,17.10
2019-02-19T10:00:27.926Z,12.23
2019-02-19T10:02:57.003Z,12.67
2019-02-19T10:05:26.093Z,12.90
2019-02-19T10:07:55.924Z,17.70
2019-02-19T10:10:25.174Z,17.53
2019-02-19T10:12:54.271Z,15.23
2019-02-19T10:15:23.349Z,13.30
2019-02-19T10:17:52.512Z,15.33
2019-02-19T10:20:21.611Z,16.87
2019-02-19T10:22:50.709Z,15.00
2019-02-19T10:25:19.804Z,15.63
2019-02-19T10:27:48.881Z,12.47
2019-02-19T10:30:17.966Z,13.27
2019-02-19T10:32:47.043Z,13.83
2019-02-19T10:35:16.211Z,16.23
2019-02-19T10:37:45.283Z,14.77
2019-02-19T10:40:15.111Z,14.57
2019-02-19T10:42:44.193Z,11.10
2019-02-19T10:45:15.587Z,14.33
2019-02-19T10:47:44.680Z,12.10
2019-02-19T10:50:13.786Z,16.60
2019-02-19T10:52:42.944Z,12.10
2019-02-19T10:55:12.033Z,10.77
2019-02-19T10:57:41.142Z,12.87
2019-02-19T11:00:16.768Z,15.23
2019-02-19T11:02:45.939Z,11.30
2019-02-19T11:05:15.045Z,16.33
2019-02-19T11:07:44.035Z,9.70
2019-02-19T11:10:13.541Z,10.83
2019-02-19T11:12:42.894Z,10.47
2019-02-19T11:15:12.062Z,11.20
2019-02-19T11:17:41.157Z,10.47
2019-02-19T11:20:11.654Z,11.07
2019-02-19T11:22:40.726Z,9.97
2019-02-19T11:25:11.321Z,10.93
2019-02-19T11:27:40.449Z,8.90
2019-02-19T11:30:12.138Z,8.87
2019-02-19T11:32:41.231Z,10.33
2019-02-19T11:35:10.355Z,8.73
2019-02-19T11:37:39.504Z,10.53
2019-02-19T11:40:09.868Z,6.87
2019-02-19T11:42:39.029Z,9.47
2019-02-19T11:45:10.291Z,6.87
2019-02-19T11:47:39.391Z,8.17
2019-02-19T11:50:08.596Z,5.50
2019-02-19T11:52:37.697Z,5.83
2019-02-19T11:55:07.626Z,7.07
2019-02-19T11:57:36.694Z,6.63
2019-02-19T12:00:07.738Z,10.60
2019-02-19T12:02:36.842Z,11.67
2019-02-19T12:05:07.041Z,6.67
2019-02-19T12:07:36.230Z,11.27
2019-02-19T12:10:05.905Z,12.87
2019-02-19T12:12:34.991Z,5.27
2019-02-19T12:15:04.418Z,5.60
2019-02-19T12:17:33.513Z,8.20
2019-02-19T12:20:02.678Z,6.47
2019-02-19T12:22:31.780Z,8.63
2019-02-19T12:25:00.865Z,7.07
2019-02-19T12:27:29.942Z,8.37
2019-02-19T12:29:59.057Z,8.83
2019-02-19T12:32:28.152Z,7.63
2019-02-19T12:34:57.252Z,8.10
2019-02-19T12:37:26.290Z,8.37
2019-02-19T12:39:55.319Z,8.63
2019-02-19T12:42:24.474Z,8.27
2019-02-19T12:44:53.680Z,9.03
2019-02-19T12:47:22.786Z,8.77
2019-02-19T12:49:51.864Z,9.27
2019-02-19T12:52:20.970Z,9.83
2019-02-19T12:54:50.098Z,7.80
2019-02-19T12:57:19.183Z,11.37
2019-02-19T12:59:56.251Z,13.20
2019-02-19T13:02:19.714Z,7.87
2019-02-19T13:04:49.034Z,9.73
2019-02-19T13:07:18.186Z,9.77
2019-02-19T13:09:47.292Z,9.73
2019-02-19T13:12:16.334Z,8.33
2019-02-19T13:14:45.453Z,8.93
2019-02-19T13:17:14.542Z,9.13
2019-02-19T13:19:43.658Z,8.97
2019-02-19T13:22:12.753Z,9.27
2019-02-19T13:24:43.059Z,11.20
2019-02-19T13:27:12.323Z,11.80
2019-02-19T13:29:41.380Z,6.37
2019-02-19T13:32:10.517Z,10.23
2019-02-19T13:34:39.623Z,7.73
2019-02-19T13:37:09.049Z,9.13
2019-02-19T13:39:38.212Z,10.00
2019-02-19T13:42:07.334Z,10.27
2019-02-19T13:44:36.446Z,5.97
2019-02-19T13:47:05.543Z,4.33
2019-02-19T13:49:34.736Z,5.00
2019-02-19T13:52:12.137Z,5.87
2019-02-19T13:54:47.157Z,6.23
2019-02-19T13:57:16.270Z,4.13
2019-02-19T13:59:45.392Z,5.57
2019-02-19T14:02:14.526Z,4.43
2019-02-19T14:04:43.680Z,4.20
2019-02-19T14:07:12.865Z,4.73
2019-02-19T14:09:42.048Z,4.47
2019-02-19T14:12:11.144Z,5.27
2019-02-19T14:14:47.823Z,8.83
2019-02-19T14:17:19.289Z,6.57
2019-02-19T14:19:53.106Z,4.00
2019-02-19T14:22:41.235Z,4.60
2019-02-19T14:25:29.429Z,3.50
2019-02-19T14:28:16.450Z,6.57
2019-02-19T14:31:03.491Z,3.93
2019-02-19T14:34:01.005Z,6.00
2019-02-19T14:36:47.835Z,4.63
2019-02-19T14:39:34.741Z,4.40
2019-02-19T14:42:35.316Z,3.87
2019-02-19T14:45:10.939Z,5.60
2019-02-19T14:47:59.089Z,3.60
2019-02-19T14:50:50.291Z,5.47
2019-02-19T14:53:35.328Z,4.93
2019-02-19T14:56:22.373Z,4.63
2019-02-19T14:59:09.128Z,4.47
2019-02-19T15:02:03.585Z,5.20
2019-02-19T15:04:54.639Z,3.60
2019-02-19T15:07:41.627Z,3.73
2019-02-19T15:10:37.150Z,3.23
2019-02-19T15:13:34.282Z,7.93
2019-02-19T15:16:28.290Z,3.87
2019-02-19T15:19:22.975Z,4.03
2019-02-19T15:22:23.216Z,3.53
2019-02-19T15:25:14.165Z,4.43
2019-02-19T15:28:08.251Z,4.33
2019-02-19T15:30:55.037Z,4.97
2019-02-19T15:33:41.611Z,3.30
2019-02-19T15:36:29.776Z,3.63
2019-02-19T15:39:06.705Z,3.97
2019-02-19T15:41:57.875Z,5.10
2019-02-19T15:44:35.835Z,6.53
2019-02-19T15:47:36.327Z,3.77
2019-02-19T15:50:33.822Z,4.17
2019-02-19T15:53:37.141Z,5.27
2019-02-19T15:56:28.086Z,5.53
2019-02-19T15:59:16.328Z,4.10
2019-02-19T16:01:52.477Z,4.23
2019-02-19T16:04:46.932Z,3.90
2019-02-19T16:07:25.995Z,3.73
2019-02-19T16:10:00.411Z,3.00
2019-02-19T16:12:35.987Z,4.90
2019-02-19T16:15:36.890Z,6.77
2019-02-19T16:18:14.131Z,4.53
2019-02-19T16:21:08.335Z,6.97
2019-02-19T16:23:43.107Z,4.07
2019-02-19T16:26:22.703Z,6.13
2019-02-19T16:28:59.309Z,6.10
2019-02-19T16:31:46.473Z,4.70
2019-02-19T16:34:37.666Z,5.07
2019-02-19T16:37:22.599Z,4.70
2019-02-19T16:40:05.602Z,7.30
2019-02-19T16:43:02.858Z,5.10
2019-02-19T16:46:00.192Z,6.00
2019-02-19T16:48:44.246Z,6.77
2019-02-19T16:51:23.033Z,7.27
2019-02-19T16:54:26.323Z,8.73
2019-02-19T16:57:13.195Z,9.67
2019-02-19T16:59:57.101Z,12.93
2019-02-19T17:02:35.905Z,6.63
2019-02-19T17:05:32.130Z,5.53
2019-02-19T17:08:22.810Z,6.63
2019-02-19T17:10:59.204Z,5.23
2019-02-19T17:13:37.939Z,8.80
2019-02-19T17:16:17.547Z,4.50
2019-02-19T17:19:00.795Z,5.00
2019-02-19T17:21:42.200Z,3.20
2019-02-19T17:24:42.370Z,4.03
2019-02-19T17:27:29.216Z,6.10
2019-02-19T17:30:16.258Z,6.97
2019-02-19T17:32:59.872Z,3.43
2019-02-19T17:35:53.911Z,4.60
2019-02-19T17:38:27.977Z,5.10
2019-02-19T17:41:05.970Z,6.07
2019-02-19T17:43:49.651Z,7.47
2019-02-19T17:46:37.792Z,7.40
2019-02-19T17:49:17.989Z,6.50
2019-02-19T17:52:03.624Z,9.53
2019-02-19T17:54:41.230Z,8.77
2019-02-19T17:57:28.182Z,7.13
2019-02-19T18:00:16.446Z,7.90
2019-02-19T18:03:13.885Z,8.63
2019-02-19T18:05:56.929Z,7.70
2019-02-19T18:08:37.774Z,8.17
2019-02-19T18:11:25.700Z,7.67
2019-02-19T18:14:05.898Z,12.63
2019-02-19T18:16:56.015Z,10.40
2019-02-19T18:19:25.140Z,11.17
2019-02-19T18:21:54.260Z,8.63
2019-02-19T18:24:23.457Z,9.57
2019-02-19T18:26:52.703Z,12.23
2019-02-19T18:29:21.883Z,11.87
2019-02-19T18:31:51.031Z,11.27
2019-02-19T18:34:20.217Z,10.97
2019-02-19T18:36:49.431Z,12.70
2019-02-19T18:39:18.570Z,14.97
2019-02-19T18:41:47.685Z,19.40
2019-02-19T18:44:16.814Z,23.73
2019-02-19T18:46:46.016Z,16.53
2019-02-19T18:49:15.362Z,16.90
2019-02-19T18:51:46.104Z,13.10
2019-02-19T18:54:15.242Z,11.47
2019-02-19T18:56:44.443Z,14.10
2019-02-19T18:59:13.622Z,14.10
2019-02-19T19:01:42.811Z,11.40
2019-02-19T19:04:11.927Z,7.80
2019-02-19T19:06:41.018Z,9.10
2019-02-19T19:09:10.126Z,14.03
2019-02-19T19:11:39.510Z,19.37
2019-02-19T19:14:08.660Z,17.93
2019-02-19T19:16:37.812Z,16.53
2019-02-19T19:19:06.961Z,19.53
2019-02-19T19:21:36.159Z,18.70
2019-02-19T19:24:05.307Z,17.80
2019-02-19T19:26:34.502Z,20.43
2019-02-19T19:29:03.655Z,23.63
2019-02-19T19:31:33.916Z,19.90
2019-02-19T19:34:03.299Z,17.00
2019-02-19T19:36:33.841Z,19.63
2019-02-19T19:39:03.073Z,25.37
2019-02-19T19:41:32.208Z,20.43
2019-02-19T19:44:01.235Z,20.83
2019-02-19T19:46:30.382Z,14.83
2019-02-19T19:48:59.573Z,16.53
2019-02-19T19:51:28.687Z,17.27
2019-02-19T19:53:57.801Z,16.67
2019-02-19T19:56:26.921Z,17.30
2019-02-19T19:58:56.054Z,18.77
2019-02-19T20:01:25.289Z,19.87
2019-02-19T20:03:54.410Z,18.70
2019-02-19T20:06:23.526Z,20.93
2019-02-19T20:08:52.689Z,17.60
2019-02-19T20:11:21.845Z,17.83
2019-02-19T20:13:51.085Z,17.20
2019-02-19T20:16:20.276Z,21.97
2019-02-19T20:18:49.573Z,24.20
2019-02-19T20:21:26.515Z,22.87
2019-02-19T20:23:50.139Z,17.33
2019-02-19T20:26:19.407Z,21.53
2019-02-19T20:28:48.537Z,15.60
2019-02-19T20:31:17.714Z,23.80
2019-02-19T20:33:46.769Z,22.67
2019-02-19T20:36:15.995Z,22.00
2019-02-19T20:38:45.185Z,28.20
2019-02-19T20:41:14.476Z,28.00
2019-02-19T20:43:43.565Z,24.53
2019-02-19T20:46:12.674Z,22.77
2019-02-19T20:48:41.775Z,18.03
2019-02-19T20:51:10.869Z,17.87
2019-02-19T20:53:40.058Z,18.17
2019-02-19T20:56:09.213Z,19.73
2019-02-19T20:58:38.293Z,21.23
2019-02-19T21:01:07.725Z,24.27
2019-02-19T21:03:36.852Z,19.87
2019-02-19T21:06:06.019Z,22.70
2019-02-19T21:08:35.128Z,24.27
2019-02-19T21:11:04.214Z,19.30
2019-02-19T21:13:33.293Z,17.80
2019-02-19T21:16:02.723Z,16.90
2019-02-19T21:18:31.818Z,18.43
2019-02-19T21:21:00.947Z,21.50
2019-02-19T21:23:30.156Z,19.50
2019-02-19T21:25:59.276Z,23.17
2019-02-19T21:28:28.837Z,24.40
2019-02-19T21:30:57.941Z,23.47
2019-02-19T21:33:27.080Z,21.03
2019-02-19T21:35:57.856Z,21.67
2019-02-19T21:38:27.003Z,20.83
2019-02-19T21:40:56.166Z,20.03
2019-02-19T21:43:25.281Z,18.80
2019-02-19T21:45:54.387Z,23.47
2019-02-19T21:48:23.540Z,30.50
2019-02-19T21:50:52.660Z,27.30
2019-02-19T21:53:22.102Z,32.33
2019-02-19T21:55:51.225Z,26.80
2019-02-19T21:58:20.368Z,26.03
2019-02-19T22:00:49.482Z,28.47
2019-02-19T22:03:18.587Z,24.93
2019-02-19T22:05:47.731Z,19.30
2019-02-19T22:08:16.863Z,18.00
2019-02-19T22:10:45.983Z,20.03
2019-02-19T22:13:15.235Z,16.87
2019-02-19T22:15:44.348Z,18.33
2019-02-19T22:18:13.461Z,19.07
2019-02-19T22:20:53.815Z,22.23
2019-02-19T22:23:22.920Z,19.77
2019-02-19T22:25:52.135Z,21.83
2019-02-19T22:28:22.958Z,22.17
2019-02-19T22:30:52.317Z,18.53
2019-02-19T22:33:21.392Z,25.37
2019-02-19T22:35:50.561Z,19.87
2019-02-19T22:38:19.645Z,19.83
2019-02-19T22:40:54.968Z,64.87
2019-02-19T22:43:19.612Z,97.60
2019-02-19T22:45:48.796Z,64.10
2019-02-19T22:48:17.912Z,26.07
2019-02-19T22:50:47.095Z,29.07
2019-02-19T22:53:34.301Z,26.43
2019-02-19T22:56:13.167Z,28.63
2019-02-19T22:58:42.307Z,32.87
2019-02-19T23:01:32.852Z,32.67
2019-02-19T23:04:02.572Z,32.23
2019-02-19T23:06:31.710Z,31.07
2019-02-19T23:09:00.820Z,31.10
2019-02-19T23:11:29.922Z,34.47
2019-02-19T23:13:59.023Z,30.00
2019-02-19T23:16:28.143Z,32.70
2019-02-19T23:18:57.215Z,29.33
2019-02-19T23:21:26.334Z,30.60
2019-02-19T23:23:55.485Z,32.37
2019-02-19T23:26:24.623Z,29.70
2019-02-19T23:28:53.696Z,28.67
2019-02-19T23:31:22.813Z,31.40
2019-02-19T23:33:51.915Z,32.77
2019-02-19T23:36:28.868Z,33.47
2019-02-19T23:38:57.955Z,26.83
2019-02-19T23:41:27.077Z,29.43
2019-02-19T23:43:56.197Z,29.10
2019-02-19T23:46:25.287Z,33.47
2019-02-19T23:48:54.387Z,31.50
2019-02-19T23:51:23.491Z,25.63
2019-02-19T23:53:52.669Z,29.53
2019-02-19T23:56:21.761Z,32.40
2019-02-19T23:58:50.843Z,27.33
